sensor_id;sensor_type;location;lat;lon;timestamp;P1;durP1;ratioP1;P2;durP2;ratioP2
65753;SDS011;52488;47.502;18.940;2022-12-20T00:00:04;50.92;;;18.85;;
65753;SDS011;52488;47.502;18.940;2022-12-20T00:01:09;42.35;;;17.05;;
65753;SDS011;52488;47.502;18.940;2022-12-20T00:02:13;46.10;;;17.37;;
65753;SDS011;52488;47.502;18.940;2022-12-20T00:03:17;47.83;;;20.00;;
65753;SDS011;52488;47.502;18.940;2022-12-20T00:04:20;44.35;;;18.12;;
65753;SDS011;52488;47.502;18.940;2022-12-20T00:05:22;47.25;;;18.40;;
65753;SDS011;52488;47.502;18.940;2022-12-20T00:06:25;50.85;;;20.58;;
65753;SDS011;52488;47.502;18.940;2022-12-20T00:07:28;47.95;;;19.37;;
65753;SDS011;52488;47.502;18.940;2022-12-20T00:08:31;43.28;;;18.05;;
65753;SDS011;52488;47.502;18.940;2022-12-20T00:09:36;43.55;;;18.08;;
65753;SDS011;52488;47.502;18.940;2022-12-20T00:10:40;38.33;;;14.18;;
65753;SDS011;52488;47.502;18.940;2022-12-20T00:11:45;29.58;;;13.85;;
65753;SDS011;52488;47.502;18.940;2022-12-20T00:12:48;50.63;;;18.85;;
65753;SDS011;52488;47.502;18.940;2022-12-20T00:13:51;46.88;;;18.20;;
65753;SDS011;52488;47.502;18.940;2022-12-20T00:14:54;45.22;;;18.15;;
65753;SDS011;52488;47.502;18.940;2022-12-20T00:16:08;42.97;;;17.58;;
65753;SDS011;52488;47.502;18.940;2022-12-20T00:17:13;51.28;;;18.75;;
65753;SDS011;52488;47.502;18.940;2022-12-20T00:18:16;44.53;;;18.05;;
65753;SDS011;52488;47.502;18.940;2022-12-20T00:19:19;44.40;;;17.77;;
65753;SDS011;52488;47.502;18.940;2022-12-20T00:20:22;31.75;;;13.32;;
65753;SDS011;52488;47.502;18.940;2022-12-20T00:21:26;40.72;;;17.58;;
65753;SDS011;52488;47.502;18.940;2022-12-20T00:22:30;43.65;;;17.27;;
65753;SDS011;52488;47.502;18.940;2022-12-20T00:23:34;40.15;;;16.45;;
65753;SDS011;52488;47.502;18.940;2022-12-20T00:24:37;49.25;;;18.12;;
65753;SDS011;52488;47.502;18.940;2022-12-20T00:25:40;40.22;;;15.85;;
65753;SDS011;52488;47.502;18.940;2022-12-20T00:26:43;41.85;;;16.65;;
65753;SDS011;52488;47.502;18.940;2022-12-20T00:27:46;41.47;;;17.02;;
65753;SDS011;52488;47.502;18.940;2022-12-20T00:28:50;49.40;;;18.10;;
65753;SDS011;52488;47.502;18.940;2022-12-20T00:29:53;40.38;;;15.73;;
65753;SDS011;52488;47.502;18.940;2022-12-20T00:30:56;45.10;;;17.58;;
65753;SDS011;52488;47.502;18.940;2022-12-20T00:31:58;41.13;;;16.98;;
65753;SDS011;52488;47.502;18.940;2022-12-20T00:33:02;36.80;;;16.15;;
65753;SDS011;52488;47.502;18.940;2022-12-20T00:34:05;46.70;;;17.58;;
65753;SDS011;52488;47.502;18.940;2022-12-20T00:35:08;50.88;;;17.80;;
65753;SDS011;52488;47.502;18.940;2022-12-20T00:36:11;43.80;;;17.75;;
65753;SDS011;52488;47.502;18.940;2022-12-20T00:37:14;46.90;;;17.58;;
65753;SDS011;52488;47.502;18.940;2022-12-20T00:38:16;43.03;;;17.30;;
65753;SDS011;52488;47.502;18.940;2022-12-20T00:39:19;46.85;;;18.08;;
65753;SDS011;52488;47.502;18.940;2022-12-20T00:40:22;39.63;;;17.12;;
65753;SDS011;52488;47.502;18.940;2022-12-20T00:41:26;44.65;;;17.33;;
65753;SDS011;52488;47.502;18.940;2022-12-20T00:42:31;44.03;;;17.50;;
65753;SDS011;52488;47.502;18.940;2022-12-20T00:43:34;41.78;;;17.60;;
65753;SDS011;52488;47.502;18.940;2022-12-20T00:44:38;41.60;;;16.75;;
65753;SDS011;52488;47.502;18.940;2022-12-20T00:45:41;37.05;;;16.33;;
65753;SDS011;52488;47.502;18.940;2022-12-20T00:46:44;38.78;;;17.23;;
65753;SDS011;52488;47.502;18.940;2022-12-20T00:47:47;49.50;;;18.40;;
65753;SDS011;52488;47.502;18.940;2022-12-20T00:48:50;42.92;;;17.23;;
65753;SDS011;52488;47.502;18.940;2022-12-20T00:49:53;49.25;;;18.50;;
65753;SDS011;52488;47.502;18.940;2022-12-20T00:50:57;44.80;;;18.55;;
65753;SDS011;52488;47.502;18.940;2022-12-20T00:52:01;41.47;;;15.57;;
65753;SDS011;52488;47.502;18.940;2022-12-20T00:53:04;43.03;;;17.08;;
65753;SDS011;52488;47.502;18.940;2022-12-20T00:54:07;45.40;;;18.02;;
65753;SDS011;52488;47.502;18.940;2022-12-20T00:55:09;40.38;;;17.48;;
65753;SDS011;52488;47.502;18.940;2022-12-20T00:56:12;37.65;;;15.57;;
65753;SDS011;52488;47.502;18.940;2022-12-20T00:57:16;45.08;;;16.87;;
65753;SDS011;52488;47.502;18.940;2022-12-20T00:58:19;40.65;;;17.08;;
65753;SDS011;52488;47.502;18.940;2022-12-20T00:59:22;44.70;;;17.20;;
65753;SDS011;52488;47.502;18.940;2022-12-20T01:00:25;41.80;;;17.62;;
65753;SDS011;52488;47.502;18.940;2022-12-20T01:01:29;38.60;;;17.20;;
65753;SDS011;52488;47.502;18.940;2022-12-20T01:02:35;44.70;;;17.33;;
65753;SDS011;52488;47.502;18.940;2022-12-20T01:03:38;41.60;;;16.52;;
65753;SDS011;52488;47.502;18.940;2022-12-20T01:04:41;47.53;;;18.67;;
65753;SDS011;52488;47.502;18.940;2022-12-20T01:05:57;47.42;;;18.40;;
65753;SDS011;52488;47.502;18.940;2022-12-20T01:07:02;39.45;;;15.93;;
65753;SDS011;52488;47.502;18.940;2022-12-20T01:08:05;47.53;;;17.35;;
65753;SDS011;52488;47.502;18.940;2022-12-20T01:09:09;44.92;;;17.85;;
65753;SDS011;52488;47.502;18.940;2022-12-20T01:10:13;44.10;;;17.90;;
65753;SDS011;52488;47.502;18.940;2022-12-20T01:11:17;40.55;;;16.40;;
65753;SDS011;52488;47.502;18.940;2022-12-20T01:12:39;42.72;;;16.30;;
65753;SDS011;52488;47.502;18.940;2022-12-20T01:13:43;39.13;;;16.02;;
65753;SDS011;52488;47.502;18.940;2022-12-20T01:14:47;41.10;;;16.83;;
65753;SDS011;52488;47.502;18.940;2022-12-20T01:15:51;42.92;;;17.35;;
65753;SDS011;52488;47.502;18.940;2022-12-20T01:16:54;41.83;;;17.73;;
65753;SDS011;52488;47.502;18.940;2022-12-20T01:17:57;41.33;;;16.98;;
65753;SDS011;52488;47.502;18.940;2022-12-20T01:19:00;41.80;;;17.10;;
65753;SDS011;52488;47.502;18.940;2022-12-20T01:20:04;44.78;;;17.42;;
65753;SDS011;52488;47.502;18.940;2022-12-20T01:21:10;39.97;;;15.50;;
65753;SDS011;52488;47.502;18.940;2022-12-20T01:22:14;45.47;;;16.65;;
65753;SDS011;52488;47.502;18.940;2022-12-20T01:23:17;44.58;;;17.17;;
65753;SDS011;52488;47.502;18.940;2022-12-20T01:24:20;46.88;;;17.98;;
65753;SDS011;52488;47.502;18.940;2022-12-20T01:25:23;44.55;;;17.70;;
65753;SDS011;52488;47.502;18.940;2022-12-20T01:26:27;46.20;;;17.75;;
65753;SDS011;52488;47.502;18.940;2022-12-20T01:27:30;40.83;;;17.80;;
65753;SDS011;52488;47.502;18.940;2022-12-20T01:28:34;41.60;;;17.80;;
65753;SDS011;52488;47.502;18.940;2022-12-20T01:29:38;46.25;;;17.73;;
65753;SDS011;52488;47.502;18.940;2022-12-20T01:30:41;45.63;;;17.77;;
65753;SDS011;52488;47.502;18.940;2022-12-20T01:31:44;44.45;;;17.55;;
65753;SDS011;52488;47.502;18.940;2022-12-20T01:32:47;44.45;;;17.17;;
65753;SDS011;52488;47.502;18.940;2022-12-20T01:33:50;42.72;;;16.67;;
65753;SDS011;52488;47.502;18.940;2022-12-20T01:34:54;44.83;;;18.25;;
65753;SDS011;52488;47.502;18.940;2022-12-20T01:35:58;45.90;;;17.02;;
65753;SDS011;52488;47.502;18.940;2022-12-20T01:37:03;47.58;;;18.12;;
65753;SDS011;52488;47.502;18.940;2022-12-20T01:38:06;39.28;;;16.48;;
65753;SDS011;52488;47.502;18.940;2022-12-20T01:39:13;46.40;;;17.33;;
65753;SDS011;52488;47.502;18.940;2022-12-20T01:40:17;43.22;;;17.00;;
65753;SDS011;52488;47.502;18.940;2022-12-20T01:41:23;39.50;;;16.15;;
65753;SDS011;52488;47.502;18.940;2022-12-20T01:42:27;37.38;;;15.80;;
65753;SDS011;52488;47.502;18.940;2022-12-20T01:43:47;45.63;;;17.85;;
65753;SDS011;52488;47.502;18.940;2022-12-20T01:44:56;41.37;;;16.05;;
65753;SDS011;52488;47.502;18.940;2022-12-20T01:46:01;45.20;;;17.30;;
65753;SDS011;52488;47.502;18.940;2022-12-20T01:47:04;36.45;;;16.10;;
65753;SDS011;52488;47.502;18.940;2022-12-20T01:48:08;38.75;;;15.88;;
65753;SDS011;52488;47.502;18.940;2022-12-20T01:49:14;41.70;;;17.23;;
65753;SDS011;52488;47.502;18.940;2022-12-20T01:50:20;44.88;;;16.80;;
65753;SDS011;52488;47.502;18.940;2022-12-20T01:51:23;44.30;;;16.65;;
65753;SDS011;52488;47.502;18.940;2022-12-20T01:52:37;42.13;;;18.20;;
65753;SDS011;52488;47.502;18.940;2022-12-20T01:53:45;40.95;;;16.35;;
65753;SDS011;52488;47.502;18.940;2022-12-20T01:55:04;45.08;;;17.37;;
65753;SDS011;52488;47.502;18.940;2022-12-20T01:57:26;45.08;;;17.58;;
65753;SDS011;52488;47.502;18.940;2022-12-20T01:58:34;31.70;;;14.13;;
65753;SDS011;52488;47.502;18.940;2022-12-20T01:59:41;42.08;;;16.17;;
65753;SDS011;52488;47.502;18.940;2022-12-20T02:00:46;43.63;;;17.48;;
65753;SDS011;52488;47.502;18.940;2022-12-20T02:01:49;44.95;;;17.75;;
65753;SDS011;52488;47.502;18.940;2022-12-20T02:02:52;40.47;;;17.08;;
65753;SDS011;52488;47.502;18.940;2022-12-20T02:03:57;43.75;;;17.15;;
65753;SDS011;52488;47.502;18.940;2022-12-20T02:05:02;40.80;;;17.08;;
65753;SDS011;52488;47.502;18.940;2022-12-20T02:06:19;38.15;;;14.93;;
65753;SDS011;52488;47.502;18.940;2022-12-20T02:07:28;41.08;;;17.20;;
65753;SDS011;52488;47.502;18.940;2022-12-20T02:08:34;43.45;;;16.87;;
65753;SDS011;52488;47.502;18.940;2022-12-20T02:09:37;36.75;;;16.10;;
65753;SDS011;52488;47.502;18.940;2022-12-20T02:12:22;42.70;;;17.52;;
65753;SDS011;52488;47.502;18.940;2022-12-20T02:13:37;47.42;;;17.60;;
65753;SDS011;52488;47.502;18.940;2022-12-20T02:16:23;50.25;;;17.25;;
65753;SDS011;52488;47.502;18.940;2022-12-20T02:18:57;40.30;;;16.37;;
65753;SDS011;52488;47.502;18.940;2022-12-20T02:21:27;41.33;;;16.92;;
65753;SDS011;52488;47.502;18.940;2022-12-20T02:31:11;38.33;;;16.33;;
65753;SDS011;52488;47.502;18.940;2022-12-20T02:32:19;41.78;;;17.23;;
65753;SDS011;52488;47.502;18.940;2022-12-20T02:33:27;38.35;;;16.60;;
65753;SDS011;52488;47.502;18.940;2022-12-20T02:34:32;40.15;;;17.75;;
65753;SDS011;52488;47.502;18.940;2022-12-20T02:35:40;46.58;;;17.30;;
65753;SDS011;52488;47.502;18.940;2022-12-20T02:36:44;44.15;;;18.45;;
65753;SDS011;52488;47.502;18.940;2022-12-20T02:37:47;48.25;;;19.00;;
65753;SDS011;52488;47.502;18.940;2022-12-20T02:38:58;46.30;;;18.10;;
65753;SDS011;52488;47.502;18.940;2022-12-20T02:40:02;33.60;;;15.15;;
65753;SDS011;52488;47.502;18.940;2022-12-20T02:41:11;42.10;;;16.02;;
65753;SDS011;52488;47.502;18.940;2022-12-20T02:42:24;47.83;;;17.48;;
65753;SDS011;52488;47.502;18.940;2022-12-20T02:43:29;44.35;;;16.33;;
65753;SDS011;52488;47.502;18.940;2022-12-20T02:44:55;45.78;;;18.15;;
65753;SDS011;52488;47.502;18.940;2022-12-20T02:46:18;41.92;;;16.33;;
65753;SDS011;52488;47.502;18.940;2022-12-20T02:48:06;42.17;;;17.55;;
65753;SDS011;52488;47.502;18.940;2022-12-20T02:48:53;38.63;;;15.85;;
65753;SDS011;52488;47.502;18.940;2022-12-20T02:50:00;46.22;;;17.55;;
65753;SDS011;52488;47.502;18.940;2022-12-20T02:51:06;43.13;;;14.98;;
65753;SDS011;52488;47.502;18.940;2022-12-20T02:52:11;43.67;;;17.80;;
65753;SDS011;52488;47.502;18.940;2022-12-20T02:53:17;35.28;;;15.68;;
65753;SDS011;52488;47.502;18.940;2022-12-20T02:54:20;41.72;;;17.80;;
65753;SDS011;52488;47.502;18.940;2022-12-20T02:55:28;37.65;;;14.85;;
65753;SDS011;52488;47.502;18.940;2022-12-20T02:56:41;43.70;;;16.55;;
65753;SDS011;52488;47.502;18.940;2022-12-20T02:58:07;34.78;;;14.25;;
65753;SDS011;52488;47.502;18.940;2022-12-20T02:59:19;38.67;;;16.92;;
65753;SDS011;52488;47.502;18.940;2022-12-20T03:00:27;44.85;;;17.25;;
65753;SDS011;52488;47.502;18.940;2022-12-20T03:01:39;40.20;;;16.37;;
65753;SDS011;52488;47.502;18.940;2022-12-20T03:02:47;40.50;;;16.23;;
65753;SDS011;52488;47.502;18.940;2022-12-20T03:04:11;42.62;;;17.23;;
65753;SDS011;52488;47.502;18.940;2022-12-20T03:05:15;45.70;;;17.87;;
65753;SDS011;52488;47.502;18.940;2022-12-20T03:06:19;45.30;;;18.48;;
65753;SDS011;52488;47.502;18.940;2022-12-20T03:07:23;35.05;;;15.30;;
65753;SDS011;52488;47.502;18.940;2022-12-20T03:08:26;44.58;;;17.33;;
65753;SDS011;52488;47.502;18.940;2022-12-20T03:09:29;44.35;;;17.48;;
65753;SDS011;52488;47.502;18.940;2022-12-20T03:10:34;44.08;;;17.35;;
65753;SDS011;52488;47.502;18.940;2022-12-20T03:11:37;41.90;;;18.45;;
65753;SDS011;52488;47.502;18.940;2022-12-20T03:12:40;42.78;;;16.73;;
65753;SDS011;52488;47.502;18.940;2022-12-20T03:13:44;40.47;;;16.20;;
65753;SDS011;52488;47.502;18.940;2022-12-20T03:14:47;42.95;;;18.17;;
65753;SDS011;52488;47.502;18.940;2022-12-20T03:15:50;43.83;;;17.12;;
65753;SDS011;52488;47.502;18.940;2022-12-20T03:16:53;42.88;;;17.08;;
65753;SDS011;52488;47.502;18.940;2022-12-20T03:17:56;44.42;;;17.52;;
65753;SDS011;52488;47.502;18.940;2022-12-20T03:18:59;40.92;;;17.17;;
65753;SDS011;52488;47.502;18.940;2022-12-20T03:20:03;41.80;;;15.52;;
65753;SDS011;52488;47.502;18.940;2022-12-20T03:21:08;44.15;;;18.52;;
65753;SDS011;52488;47.502;18.940;2022-12-20T03:22:11;43.70;;;17.30;;
65753;SDS011;52488;47.502;18.940;2022-12-20T03:23:14;42.13;;;17.60;;
65753;SDS011;52488;47.502;18.940;2022-12-20T03:24:17;44.65;;;18.62;;
65753;SDS011;52488;47.502;18.940;2022-12-20T03:25:20;32.17;;;13.57;;
65753;SDS011;52488;47.502;18.940;2022-12-20T03:26:27;41.75;;;17.95;;
65753;SDS011;52488;47.502;18.940;2022-12-20T03:27:30;46.30;;;17.85;;
65753;SDS011;52488;47.502;18.940;2022-12-20T03:28:33;41.37;;;16.23;;
65753;SDS011;52488;47.502;18.940;2022-12-20T03:29:37;43.63;;;18.35;;
65753;SDS011;52488;47.502;18.940;2022-12-20T03:30:40;42.20;;;16.50;;
65753;SDS011;52488;47.502;18.940;2022-12-20T03:31:43;39.38;;;17.12;;
65753;SDS011;52488;47.502;18.940;2022-12-20T03:32:46;43.25;;;17.37;;
65753;SDS011;52488;47.502;18.940;2022-12-20T03:33:49;42.72;;;17.87;;
65753;SDS011;52488;47.502;18.940;2022-12-20T03:34:52;39.17;;;16.20;;
65753;SDS011;52488;47.502;18.940;2022-12-20T03:35:54;41.70;;;16.95;;
65753;SDS011;52488;47.502;18.940;2022-12-20T03:36:58;44.03;;;16.45;;
65753;SDS011;52488;47.502;18.940;2022-12-20T03:38:01;40.53;;;16.95;;
65753;SDS011;52488;47.502;18.940;2022-12-20T03:39:04;40.20;;;17.40;;
65753;SDS011;52488;47.502;18.940;2022-12-20T03:40:07;38.65;;;16.45;;
65753;SDS011;52488;47.502;18.940;2022-12-20T03:41:11;39.58;;;16.10;;
65753;SDS011;52488;47.502;18.940;2022-12-20T03:42:14;35.50;;;15.15;;
65753;SDS011;52488;47.502;18.940;2022-12-20T03:43:17;41.83;;;15.38;;
65753;SDS011;52488;47.502;18.940;2022-12-20T03:44:20;39.55;;;16.05;;
65753;SDS011;52488;47.502;18.940;2022-12-20T03:45:23;37.63;;;15.70;;
65753;SDS011;52488;47.502;18.940;2022-12-20T03:46:26;37.05;;;15.48;;
65753;SDS011;52488;47.502;18.940;2022-12-20T03:47:30;32.47;;;12.00;;
65753;SDS011;52488;47.502;18.940;2022-12-20T03:48:33;37.40;;;15.85;;
65753;SDS011;52488;47.502;18.940;2022-12-20T03:49:36;36.22;;;14.13;;
65753;SDS011;52488;47.502;18.940;2022-12-20T03:50:39;40.35;;;16.10;;
65753;SDS011;52488;47.502;18.940;2022-12-20T03:51:43;41.75;;;16.37;;
65753;SDS011;52488;47.502;18.940;2022-12-20T03:52:46;42.13;;;16.60;;
65753;SDS011;52488;47.502;18.940;2022-12-20T03:53:49;38.08;;;15.25;;
65753;SDS011;52488;47.502;18.940;2022-12-20T03:54:52;46.75;;;17.60;;
65753;SDS011;52488;47.502;18.940;2022-12-20T03:55:55;40.17;;;15.90;;
65753;SDS011;52488;47.502;18.940;2022-12-20T03:56:58;35.60;;;15.98;;
65753;SDS011;52488;47.502;18.940;2022-12-20T03:58:01;42.30;;;16.50;;
65753;SDS011;52488;47.502;18.940;2022-12-20T03:59:04;33.40;;;14.75;;
65753;SDS011;52488;47.502;18.940;2022-12-20T04:00:07;41.78;;;16.37;;
65753;SDS011;52488;47.502;18.940;2022-12-20T04:01:21;40.47;;;16.17;;
65753;SDS011;52488;47.502;18.940;2022-12-20T04:02:26;36.67;;;14.73;;
65753;SDS011;52488;47.502;18.940;2022-12-20T04:03:30;43.15;;;16.12;;
65753;SDS011;52488;47.502;18.940;2022-12-20T04:04:33;35.75;;;14.87;;
65753;SDS011;52488;47.502;18.940;2022-12-20T04:05:36;35.85;;;15.07;;
65753;SDS011;52488;47.502;18.940;2022-12-20T04:06:39;38.70;;;15.55;;
65753;SDS011;52488;47.502;18.940;2022-12-20T04:07:42;36.38;;;15.80;;
65753;SDS011;52488;47.502;18.940;2022-12-20T04:08:47;32.08;;;11.27;;
65753;SDS011;52488;47.502;18.940;2022-12-20T04:09:51;39.28;;;16.37;;
65753;SDS011;52488;47.502;18.940;2022-12-20T04:10:54;38.47;;;15.60;;
65753;SDS011;52488;47.502;18.940;2022-12-20T04:12:15;38.70;;;15.57;;
65753;SDS011;52488;47.502;18.940;2022-12-20T04:13:19;38.15;;;16.42;;
65753;SDS011;52488;47.502;18.940;2022-12-20T04:14:22;39.53;;;15.82;;
65753;SDS011;52488;47.502;18.940;2022-12-20T04:15:25;35.72;;;15.13;;
65753;SDS011;52488;47.502;18.940;2022-12-20T04:16:28;34.58;;;14.55;;
65753;SDS011;52488;47.502;18.940;2022-12-20T04:17:32;37.63;;;14.13;;
65753;SDS011;52488;47.502;18.940;2022-12-20T04:18:35;34.10;;;13.73;;
65753;SDS011;52488;47.502;18.940;2022-12-20T04:19:38;36.10;;;15.02;;
65753;SDS011;52488;47.502;18.940;2022-12-20T04:20:41;37.13;;;15.38;;
65753;SDS011;52488;47.502;18.940;2022-12-20T04:21:44;41.37;;;15.65;;
65753;SDS011;52488;47.502;18.940;2022-12-20T04:22:48;38.95;;;15.25;;
65753;SDS011;52488;47.502;18.940;2022-12-20T04:23:52;35.60;;;14.15;;
65753;SDS011;52488;47.502;18.940;2022-12-20T04:24:56;32.13;;;13.13;;
65753;SDS011;52488;47.502;18.940;2022-12-20T04:25:59;34.45;;;15.20;;
65753;SDS011;52488;47.502;18.940;2022-12-20T04:27:03;40.72;;;15.93;;
65753;SDS011;52488;47.502;18.940;2022-12-20T04:28:06;39.05;;;15.95;;
65753;SDS011;52488;47.502;18.940;2022-12-20T04:29:09;36.20;;;13.95;;
65753;SDS011;52488;47.502;18.940;2022-12-20T04:30:13;36.55;;;15.07;;
65753;SDS011;52488;47.502;18.940;2022-12-20T04:31:16;37.35;;;13.57;;
65753;SDS011;52488;47.502;18.940;2022-12-20T04:32:25;33.92;;;13.98;;
65753;SDS011;52488;47.502;18.940;2022-12-20T04:33:28;36.63;;;14.85;;
65753;SDS011;52488;47.502;18.940;2022-12-20T04:34:32;28.27;;;10.57;;
65753;SDS011;52488;47.502;18.940;2022-12-20T04:35:36;18.35;;;8.50;;
65753;SDS011;52488;47.502;18.940;2022-12-20T04:36:39;39.15;;;15.70;;
65753;SDS011;52488;47.502;18.940;2022-12-20T04:37:43;26.35;;;10.07;;
65753;SDS011;52488;47.502;18.940;2022-12-20T04:38:46;32.50;;;13.00;;
65753;SDS011;52488;47.502;18.940;2022-12-20T04:39:49;32.05;;;14.23;;
65753;SDS011;52488;47.502;18.940;2022-12-20T04:40:53;37.78;;;14.85;;
65753;SDS011;52488;47.502;18.940;2022-12-20T04:41:56;35.40;;;15.57;;
65753;SDS011;52488;47.502;18.940;2022-12-20T04:43:00;35.85;;;16.17;;
65753;SDS011;52488;47.502;18.940;2022-12-20T04:44:02;41.55;;;16.25;;
65753;SDS011;52488;47.502;18.940;2022-12-20T04:45:06;35.70;;;15.25;;
65753;SDS011;52488;47.502;18.940;2022-12-20T04:46:09;38.33;;;15.93;;
65753;SDS011;52488;47.502;18.940;2022-12-20T04:47:12;36.05;;;15.07;;
65753;SDS011;52488;47.502;18.940;2022-12-20T04:48:18;35.92;;;15.02;;
65753;SDS011;52488;47.502;18.940;2022-12-20T04:49:42;37.30;;;14.98;;
65753;SDS011;52488;47.502;18.940;2022-12-20T04:50:49;35.70;;;12.35;;
65753;SDS011;52488;47.502;18.940;2022-12-20T04:51:53;41.10;;;16.25;;
65753;SDS011;52488;47.502;18.940;2022-12-20T04:52:56;33.00;;;14.20;;
65753;SDS011;52488;47.502;18.940;2022-12-20T04:54:18;34.60;;;13.95;;
65753;SDS011;52488;47.502;18.940;2022-12-20T04:55:20;33.38;;;13.85;;
65753;SDS011;52488;47.502;18.940;2022-12-20T04:56:26;36.40;;;14.87;;
65753;SDS011;52488;47.502;18.940;2022-12-20T04:57:30;31.77;;;13.23;;
65753;SDS011;52488;47.502;18.940;2022-12-20T04:58:33;36.30;;;15.38;;
65753;SDS011;52488;47.502;18.940;2022-12-20T04:59:36;35.83;;;13.82;;
65753;SDS011;52488;47.502;18.940;2022-12-20T05:00:39;30.73;;;13.23;;
65753;SDS011;52488;47.502;18.940;2022-12-20T05:01:42;31.40;;;14.57;;
65753;SDS011;52488;47.502;18.940;2022-12-20T05:02:46;36.03;;;14.45;;
65753;SDS011;52488;47.502;18.940;2022-12-20T05:03:49;39.22;;;15.13;;
65753;SDS011;52488;47.502;18.940;2022-12-20T05:04:52;36.90;;;15.27;;
65753;SDS011;52488;47.502;18.940;2022-12-20T05:05:55;43.95;;;15.88;;
65753;SDS011;52488;47.502;18.940;2022-12-20T05:06:58;30.83;;;12.80;;
65753;SDS011;52488;47.502;18.940;2022-12-20T05:08:02;34.78;;;13.85;;
65753;SDS011;52488;47.502;18.940;2022-12-20T05:09:06;36.38;;;14.43;;
65753;SDS011;52488;47.502;18.940;2022-12-20T05:10:09;30.88;;;13.00;;
65753;SDS011;52488;47.502;18.940;2022-12-20T05:11:12;31.80;;;12.52;;
65753;SDS011;52488;47.502;18.940;2022-12-20T05:12:16;27.95;;;11.60;;
65753;SDS011;52488;47.502;18.940;2022-12-20T05:13:19;23.48;;;10.75;;
65753;SDS011;52488;47.502;18.940;2022-12-20T05:14:22;38.55;;;15.18;;
65753;SDS011;52488;47.502;18.940;2022-12-20T05:15:25;36.10;;;13.43;;
65753;SDS011;52488;47.502;18.940;2022-12-20T05:16:28;35.38;;;15.20;;
65753;SDS011;52488;47.502;18.940;2022-12-20T05:17:31;34.50;;;13.02;;
65753;SDS011;52488;47.502;18.940;2022-12-20T05:18:35;28.10;;;12.57;;
65753;SDS011;52488;47.502;18.940;2022-12-20T05:19:46;33.95;;;13.65;;
65753;SDS011;52488;47.502;18.940;2022-12-20T05:20:49;35.88;;;14.27;;
65753;SDS011;52488;47.502;18.940;2022-12-20T05:22:12;35.13;;;14.40;;
65753;SDS011;52488;47.502;18.940;2022-12-20T05:23:34;30.83;;;14.05;;
65753;SDS011;52488;47.502;18.940;2022-12-20T05:24:56;30.35;;;13.32;;
65753;SDS011;52488;47.502;18.940;2022-12-20T05:27:21;29.87;;;11.63;;
65753;SDS011;52488;47.502;18.940;2022-12-20T05:28:27;26.30;;;11.40;;
65753;SDS011;52488;47.502;18.940;2022-12-20T05:29:30;27.27;;;13.30;;
65753;SDS011;52488;47.502;18.940;2022-12-20T05:30:33;34.35;;;14.10;;
65753;SDS011;52488;47.502;18.940;2022-12-20T05:31:37;30.30;;;13.38;;
65753;SDS011;52488;47.502;18.940;2022-12-20T05:32:40;34.28;;;14.18;;
65753;SDS011;52488;47.502;18.940;2022-12-20T05:33:46;33.38;;;13.62;;
65753;SDS011;52488;47.502;18.940;2022-12-20T05:34:49;34.05;;;14.18;;
65753;SDS011;52488;47.502;18.940;2022-12-20T05:35:52;35.42;;;14.80;;
65753;SDS011;52488;47.502;18.940;2022-12-20T05:36:56;33.72;;;13.23;;
65753;SDS011;52488;47.502;18.940;2022-12-20T05:37:59;31.83;;;14.13;;
65753;SDS011;52488;47.502;18.940;2022-12-20T05:39:04;36.85;;;13.82;;
65753;SDS011;52488;47.502;18.940;2022-12-20T05:40:07;31.70;;;13.60;;
65753;SDS011;52488;47.502;18.940;2022-12-20T05:41:11;27.42;;;12.07;;
65753;SDS011;52488;47.502;18.940;2022-12-20T05:42:14;32.58;;;14.00;;
65753;SDS011;52488;47.502;18.940;2022-12-20T05:43:18;40.40;;;15.45;;
65753;SDS011;52488;47.502;18.940;2022-12-20T05:44:22;32.00;;;13.30;;
65753;SDS011;52488;47.502;18.940;2022-12-20T05:45:27;32.10;;;12.88;;
65753;SDS011;52488;47.502;18.940;2022-12-20T05:46:30;34.35;;;14.55;;
65753;SDS011;52488;47.502;18.940;2022-12-20T05:47:33;33.42;;;14.70;;
65753;SDS011;52488;47.502;18.940;2022-12-20T05:48:37;30.92;;;13.00;;
65753;SDS011;52488;47.502;18.940;2022-12-20T05:49:40;28.80;;;13.80;;
65753;SDS011;52488;47.502;18.940;2022-12-20T05:50:43;37.10;;;14.23;;
65753;SDS011;52488;47.502;18.940;2022-12-20T05:51:47;27.48;;;12.05;;
65753;SDS011;52488;47.502;18.940;2022-12-20T05:52:50;35.38;;;13.50;;
65753;SDS011;52488;47.502;18.940;2022-12-20T05:53:53;31.08;;;13.55;;
65753;SDS011;52488;47.502;18.940;2022-12-20T05:54:56;30.30;;;12.98;;
65753;SDS011;52488;47.502;18.940;2022-12-20T05:55:59;28.42;;;12.68;;
65753;SDS011;52488;47.502;18.940;2022-12-20T05:57:02;31.23;;;13.88;;
65753;SDS011;52488;47.502;18.940;2022-12-20T05:58:06;33.60;;;14.48;;
65753;SDS011;52488;47.502;18.940;2022-12-20T05:59:09;36.05;;;14.40;;
65753;SDS011;52488;47.502;18.940;2022-12-20T06:00:13;39.95;;;14.68;;
65753;SDS011;52488;47.502;18.940;2022-12-20T06:01:17;32.55;;;12.13;;
65753;SDS011;52488;47.502;18.940;2022-12-20T06:02:20;26.33;;;11.40;;
65753;SDS011;52488;47.502;18.940;2022-12-20T06:03:23;36.65;;;14.63;;
65753;SDS011;52488;47.502;18.940;2022-12-20T06:04:27;33.00;;;13.62;;
65753;SDS011;52488;47.502;18.940;2022-12-20T06:05:29;28.05;;;13.10;;
65753;SDS011;52488;47.502;18.940;2022-12-20T06:06:33;31.60;;;14.07;;
65753;SDS011;52488;47.502;18.940;2022-12-20T06:07:36;37.30;;;14.25;;
65753;SDS011;52488;47.502;18.940;2022-12-20T06:08:39;32.72;;;13.13;;
65753;SDS011;52488;47.502;18.940;2022-12-20T06:09:42;28.27;;;12.55;;
65753;SDS011;52488;47.502;18.940;2022-12-20T06:10:46;31.70;;;13.43;;
65753;SDS011;52488;47.502;18.940;2022-12-20T06:11:49;32.28;;;13.07;;
65753;SDS011;52488;47.502;18.940;2022-12-20T06:12:52;35.22;;;14.30;;
65753;SDS011;52488;47.502;18.940;2022-12-20T06:13:55;32.45;;;13.82;;
65753;SDS011;52488;47.502;18.940;2022-12-20T06:14:59;35.67;;;14.82;;
65753;SDS011;52488;47.502;18.940;2022-12-20T06:16:02;29.23;;;13.77;;
65753;SDS011;52488;47.502;18.940;2022-12-20T06:17:05;35.45;;;13.15;;
65753;SDS011;52488;47.502;18.940;2022-12-20T06:18:08;30.55;;;13.88;;
65753;SDS011;52488;47.502;18.940;2022-12-20T06:19:12;34.90;;;15.15;;
65753;SDS011;52488;47.502;18.940;2022-12-20T06:20:23;34.28;;;14.32;;
65753;SDS011;52488;47.502;18.940;2022-12-20T06:21:26;32.35;;;12.77;;
65753;SDS011;52488;47.502;18.940;2022-12-20T06:22:29;30.12;;;14.30;;
65753;SDS011;52488;47.502;18.940;2022-12-20T06:23:35;30.02;;;10.52;;
65753;SDS011;52488;47.502;18.940;2022-12-20T06:24:38;32.50;;;13.60;;
65753;SDS011;52488;47.502;18.940;2022-12-20T06:25:49;24.95;;;10.43;;
65753;SDS011;52488;47.502;18.940;2022-12-20T06:26:52;37.33;;;14.13;;
65753;SDS011;52488;47.502;18.940;2022-12-20T06:27:55;32.00;;;14.05;;
65753;SDS011;52488;47.502;18.940;2022-12-20T06:28:59;38.63;;;14.90;;
65753;SDS011;52488;47.502;18.940;2022-12-20T06:30:04;39.10;;;15.02;;
65753;SDS011;52488;47.502;18.940;2022-12-20T06:31:08;35.30;;;14.70;;